createdAt,value
2018-12-07T00:00:38.621Z,40.87
2018-12-07T00:03:07.507Z,41.67
2018-12-07T00:05:36.072Z,44.37
2018-12-07T00:08:04.679Z,42.53
2018-12-07T00:10:33.253Z,42.17
2018-12-07T00:13:02.260Z,40.27
2018-12-07T00:15:31.186Z,38.33
2018-12-07T00:18:00.065Z,36.27
2018-12-07T00:20:28.573Z,32.90
2018-12-07T00:22:57.149Z,34.40
2018-12-07T00:25:26.123Z,34.87
2018-12-07T00:27:55.095Z,35.37
2018-12-07T00:30:23.991Z,36.27
2018-12-07T00:32:52.543Z,36.37
2018-12-07T00:35:21.511Z,38.53
2018-12-07T00:37:50.366Z,39.40
2018-12-07T00:40:18.965Z,38.43
2018-12-07T00:42:47.963Z,38.67
2018-12-07T00:45:16.550Z,39.33
2018-12-07T00:47:45.437Z,40.23
2018-12-07T00:50:14.316Z,37.97
2018-12-07T00:52:43.388Z,35.80
2018-12-07T00:55:23.171Z,35.23
2018-12-07T00:57:52.171Z,35.93
2018-12-07T01:00:21.088Z,36.03
2018-12-07T01:02:50.019Z,34.93
2018-12-07T01:05:18.964Z,33.83
2018-12-07T01:07:47.856Z,35.77
2018-12-07T01:10:16.974Z,35.77
2018-12-07T01:12:45.983Z,35.47
2018-12-07T01:15:14.876Z,36.60
2018-12-07T01:17:43.823Z,34.77
2018-12-07T01:20:12.795Z,35.00
2018-12-07T01:22:41.731Z,35.97
2018-12-07T01:25:10.624Z,35.83
2018-12-07T01:27:39.547Z,35.70
2018-12-07T01:30:08.722Z,33.27
2018-12-07T01:32:37.657Z,34.77
2018-12-07T01:35:06.594Z,33.10
2018-12-07T01:37:35.152Z,32.57
2018-12-07T01:40:04.725Z,34.50
2018-12-07T01:42:33.672Z,32.40
2018-12-07T01:45:02.707Z,32.80
2018-12-07T01:47:33.738Z,32.37
2018-12-07T01:50:02.745Z,30.57
2018-12-07T01:52:31.679Z,31.30
2018-12-07T01:55:00.190Z,32.75
2018-12-07T01:57:29.148Z,32.27
2018-12-07T01:59:57.979Z,32.47
2018-12-07T02:02:26.560Z,32.07
2018-12-07T02:04:55.475Z,33.83
2018-12-07T02:07:33.380Z,32.43
2018-12-07T02:10:02.376Z,31.53
2018-12-07T02:12:31.251Z,31.50
2018-12-07T02:14:59.824Z,30.37
2018-12-07T02:17:28.761Z,29.97
2018-12-07T02:19:57.712Z,32.80
2018-12-07T02:22:26.710Z,33.57
2018-12-07T02:24:55.244Z,31.67
2018-12-07T02:27:24.136Z,31.87
2018-12-07T02:29:53.106Z,31.27
2018-12-07T02:32:22.056Z,29.93
2018-12-07T02:34:50.652Z,30.67
2018-12-07T02:37:20.718Z,30.77
2018-12-07T02:39:49.679Z,33.23
2018-12-07T02:42:18.255Z,33.67
2018-12-07T02:44:46.833Z,30.40
2018-12-07T02:47:15.759Z,33.83
2018-12-07T02:49:44.745Z,32.63
2018-12-07T02:52:13.628Z,31.83
2018-12-07T02:54:42.228Z,31.97
2018-12-07T02:57:10.789Z,31.87
2018-12-07T02:59:39.345Z,31.17
2018-12-07T03:02:08.325Z,30.50
2018-12-07T03:04:36.907Z,30.90
2018-12-07T03:07:05.795Z,28.60
2018-12-07T03:09:34.367Z,31.77
2018-12-07T03:12:02.940Z,31.77
2018-12-07T03:14:31.855Z,29.83
2018-12-07T03:17:00.787Z,30.57
2018-12-07T03:19:29.709Z,29.60
2018-12-07T03:21:58.345Z,29.43
2018-12-07T03:24:27.202Z,28.83
2018-12-07T03:26:56.430Z,31.37
2018-12-07T03:29:25.316Z,31.60
2018-12-07T03:31:54.108Z,30.13
2018-12-07T03:34:22.995Z,30.00
2018-12-07T03:36:51.573Z,30.20
2018-12-07T03:39:20.573Z,30.53
2018-12-07T03:41:49.105Z,29.20
2018-12-07T03:44:17.650Z,29.27
2018-12-07T03:46:46.198Z,28.47
2018-12-07T03:49:15.154Z,29.57
2018-12-07T03:51:44.080Z,29.97
2018-12-07T03:54:12.995Z,30.90
2018-12-07T03:56:41.607Z,28.70
2018-12-07T03:59:10.655Z,29.30
2018-12-07T04:01:39.527Z,30.40
2018-12-07T04:04:08.504Z,29.53
2018-12-07T04:06:39.077Z,30.60
2018-12-07T04:09:08.979Z,30.53
2018-12-07T04:11:37.954Z,31.00
2018-12-07T04:14:06.952Z,33.63
2018-12-07T04:16:36.201Z,32.37
2018-12-07T04:19:04.943Z,32.80
2018-12-07T04:21:37.038Z,30.57
2018-12-07T04:24:06.174Z,30.20
2018-12-07T04:26:35.170Z,29.00
2018-12-07T04:29:04.786Z,29.40
2018-12-07T04:31:33.896Z,29.80
2018-12-07T04:34:02.556Z,30.73
2018-12-07T04:36:31.632Z,30.83
2018-12-07T04:39:00.676Z,33.03
2018-12-07T04:41:29.679Z,34.13
2018-12-07T04:43:58.443Z,33.17
2018-12-07T04:46:29.479Z,30.30
2018-12-07T04:48:58.431Z,30.73
2018-12-07T04:51:27.524Z,31.03
2018-12-07T04:53:56.530Z,31.03
2018-12-07T04:56:25.142Z,28.07
2018-12-07T04:58:53.746Z,28.87
2018-12-07T05:01:22.771Z,28.57
2018-12-07T05:03:51.844Z,30.57
2018-12-07T05:06:20.765Z,29.90
2018-12-07T05:08:55.108Z,28.60
2018-12-07T05:11:23.716Z,28.10
2018-12-07T05:13:52.622Z,28.83
2018-12-07T05:16:21.588Z,31.13
2018-12-07T05:18:50.513Z,28.70
2018-12-07T05:21:19.034Z,29.13
2018-12-07T05:23:48.063Z,30.70
2018-12-07T05:26:16.976Z,31.70
2018-12-07T05:28:45.884Z,31.17
2018-12-07T05:31:14.466Z,29.60
2018-12-07T05:33:43.167Z,30.63
2018-12-07T05:36:11.855Z,29.97
2018-12-07T05:38:40.834Z,29.77
2018-12-07T05:41:09.695Z,29.87
2018-12-07T05:43:48.599Z,30.17
2018-12-07T05:46:18.681Z,35.40
2018-12-07T05:48:47.216Z,46.00
2018-12-07T05:51:15.855Z,44.00
2018-12-07T05:53:44.792Z,38.27
2018-12-07T05:56:13.792Z,33.80
2018-12-07T05:58:42.806Z,32.23
2018-12-07T06:01:11.397Z,33.33
2018-12-07T06:03:40.280Z,33.93
2018-12-07T06:06:08.868Z,30.83
2018-12-07T06:08:37.813Z,31.47
2018-12-07T06:11:06.720Z,29.73
2018-12-07T06:13:35.581Z,27.43
2018-12-07T06:16:04.516Z,28.57
2018-12-07T06:18:33.420Z,26.53
2018-12-07T06:21:02.290Z,26.57
2018-12-07T06:23:30.914Z,26.33
2018-12-07T06:25:59.461Z,26.60
2018-12-07T06:28:28.094Z,23.90
2018-12-07T06:30:56.996Z,25.40
2018-12-07T06:33:25.871Z,24.47
2018-12-07T06:35:54.596Z,23.53
2018-12-07T06:38:23.506Z,23.60
2018-12-07T06:40:52.499Z,24.20
2018-12-07T06:43:21.485Z,24.97
2018-12-07T06:45:50.461Z,25.33
2018-12-07T06:48:19.140Z,25.03
2018-12-07T06:50:47.687Z,24.90
2018-12-07T06:53:16.558Z,26.23
2018-12-07T06:55:45.446Z,24.80
2018-12-07T06:58:13.991Z,29.03
2018-12-07T07:00:43.057Z,26.00
2018-12-07T07:03:12.004Z,29.50
2018-12-07T07:05:41.031Z,29.03
2018-12-07T07:08:09.940Z,34.17
2018-12-07T07:10:38.845Z,35.10
2018-12-07T07:13:07.864Z,37.70
2018-12-07T07:15:36.797Z,33.50
2018-12-07T07:18:05.756Z,30.83
2018-12-07T07:20:34.735Z,31.10
2018-12-07T07:23:03.792Z,28.50
2018-12-07T07:25:32.708Z,27.07
2018-12-07T07:28:01.613Z,29.47
2018-12-07T07:30:30.164Z,30.17
2018-12-07T07:32:59.044Z,34.50
2018-12-07T07:35:27.619Z,33.53
2018-12-07T07:37:56.159Z,31.97
2018-12-07T07:40:25.093Z,30.40
2018-12-07T07:42:53.679Z,29.17
2018-12-07T07:45:22.320Z,28.77
2018-12-07T07:47:51.193Z,27.80
2018-12-07T07:50:20.127Z,27.63
2018-12-07T07:52:49.019Z,26.67
2018-12-07T07:55:18.012Z,28.00
2018-12-07T07:57:46.937Z,27.40
2018-12-07T08:00:15.944Z,26.80
2018-12-07T08:02:45.161Z,25.17
2018-12-07T08:05:13.718Z,25.07
2018-12-07T08:07:42.605Z,24.90
2018-12-07T08:10:11.585Z,25.80
2018-12-07T08:12:40.159Z,24.53
2018-12-07T08:15:09.343Z,25.77
2018-12-07T08:17:38.332Z,25.90
2018-12-07T08:20:07.372Z,25.93
2018-12-07T08:22:36.279Z,26.73
2018-12-07T08:25:05.697Z,26.77
2018-12-07T08:27:34.652Z,26.20
2018-12-07T08:30:04.091Z,26.67
2018-12-07T08:32:33.267Z,26.87
2018-12-07T08:35:02.166Z,26.67
2018-12-07T08:37:31.168Z,29.70
2018-12-07T08:39:59.753Z,31.13
2018-12-07T08:42:28.768Z,30.10
2018-12-07T08:44:57.713Z,27.93
2018-12-07T08:47:26.670Z,29.00
2018-12-07T08:49:56.751Z,27.97
2018-12-07T08:52:25.675Z,27.35
2018-12-07T08:54:54.696Z,27.48
2018-12-07T08:57:23.620Z,25.70
2018-12-07T08:59:52.512Z,26.43
2018-12-07T09:02:21.441Z,26.27
2018-12-07T09:04:50.370Z,27.43
2018-12-07T09:07:19.316Z,26.27
2018-12-07T09:09:48.242Z,26.63
2018-12-07T09:12:17.151Z,25.23
2018-12-07T09:14:46.145Z,26.52
2018-12-07T09:17:15.115Z,26.23
2018-12-07T09:19:44.031Z,26.93
2018-12-07T09:22:13.074Z,25.32
2018-12-07T09:24:42.032Z,27.53
2018-12-07T09:27:10.914Z,26.77
2018-12-07T09:29:39.919Z,27.27
2018-12-07T09:32:08.975Z,27.07
2018-12-07T09:34:37.893Z,27.03
2018-12-07T09:37:06.867Z,23.70
2018-12-07T09:39:35.783Z,22.40
2018-12-07T09:42:04.895Z,22.32
2018-12-07T09:44:33.541Z,19.37
2018-12-07T09:47:02.421Z,19.60
2018-12-07T09:49:34.428Z,21.70
2018-12-07T09:52:03.351Z,21.77
2018-12-07T09:54:32.360Z,23.03
2018-12-07T09:57:01.360Z,20.70
2018-12-07T09:59:30.290Z,19.57
2018-12-07T10:01:59.254Z,19.27
2018-12-07T10:04:28.229Z,18.80
2018-12-07T10:06:57.200Z,19.73
2018-12-07T10:09:26.142Z,19.50
2018-12-07T10:11:56.143Z,19.80
2018-12-07T10:14:25.236Z,19.83
2018-12-07T10:16:54.140Z,20.17
2018-12-07T10:19:23.139Z,19.63
2018-12-07T10:21:52.016Z,19.60
2018-12-07T10:24:20.981Z,20.87
2018-12-07T10:26:49.912Z,20.43
2018-12-07T10:29:18.779Z,20.77
2018-12-07T10:31:47.748Z,20.50
2018-12-07T10:34:16.645Z,19.80
2018-12-07T10:36:45.600Z,20.53
2018-12-07T10:39:14.842Z,19.00
2018-12-07T10:41:43.992Z,18.57
2018-12-07T10:44:12.963Z,16.97
2018-12-07T10:46:41.870Z,17.75
2018-12-07T10:49:10.765Z,19.10
2018-12-07T10:51:39.692Z,18.30
2018-12-07T10:54:08.576Z,17.40
2018-12-07T10:56:37.552Z,17.83
2018-12-07T10:59:06.555Z,16.93
2018-12-07T11:01:40.859Z,17.87
2018-12-07T11:04:15.445Z,17.60
2018-12-07T11:06:49.389Z,19.07
2018-12-07T11:09:23.691Z,17.50
2018-12-07T11:11:57.976Z,17.27
2018-12-07T11:14:32.238Z,17.97
2018-12-07T11:17:06.670Z,18.13
2018-12-07T11:19:40.866Z,18.37
2018-12-07T11:22:15.131Z,18.45
2018-12-07T11:25:50.284Z,19.45
2018-12-07T11:28:24.761Z,19.30
2018-12-07T11:31:59.152Z,20.37
2018-12-07T11:34:30.091Z,20.47
2018-12-07T11:36:58.995Z,23.12
2018-12-07T11:39:27.974Z,22.43
2018-12-07T11:41:56.841Z,21.33
2018-12-07T11:44:27.882Z,23.12
2018-12-07T11:46:56.787Z,24.15
2018-12-07T11:49:30.572Z,21.73
2018-12-07T11:51:59.934Z,22.98
2018-12-07T11:54:45.840Z,24.02
2018-12-07T11:57:15.605Z,22.93
2018-12-07T11:59:44.771Z,22.43
2018-12-07T12:02:13.786Z,22.80
2018-12-07T12:04:42.668Z,22.77
2018-12-07T12:07:14.783Z,21.57
2018-12-07T12:09:43.738Z,21.37
2018-12-07T12:12:14.708Z,22.77
2018-12-07T12:14:43.837Z,21.97
2018-12-07T12:17:12.772Z,22.77
2018-12-07T12:19:41.649Z,20.77
2018-12-07T12:22:10.557Z,20.00
2018-12-07T12:24:39.537Z,20.02
2018-12-07T12:27:08.454Z,20.50
2018-12-07T12:29:37.483Z,19.47
2018-12-07T12:32:06.496Z,20.20
2018-12-07T12:34:35.487Z,21.20
2018-12-07T12:37:04.694Z,19.03
2018-12-07T12:39:33.796Z,20.30
2018-12-07T12:42:03.154Z,20.33
2018-12-07T12:44:32.091Z,20.95
2018-12-07T12:47:01.068Z,21.35
2018-12-07T12:49:31.373Z,22.33
2018-12-07T12:52:00.370Z,22.30
2018-12-07T12:54:29.318Z,21.87
2018-12-07T12:56:58.225Z,23.35
2018-12-07T12:59:27.176Z,23.97
2018-12-07T13:01:56.105Z,22.60
2018-12-07T13:04:25.050Z,23.07
2018-12-07T13:06:54.219Z,24.23
2018-12-07T13:09:23.079Z,24.23
2018-12-07T13:11:52.097Z,23.93
2018-12-07T13:14:21.043Z,23.07
2018-12-07T13:16:49.968Z,23.37
2018-12-07T13:19:18.868Z,26.77
2018-12-07T13:21:47.773Z,25.83
2018-12-07T13:24:16.721Z,25.13
2018-12-07T13:26:45.783Z,24.73
2018-12-07T13:29:14.787Z,25.37
2018-12-07T13:31:43.962Z,26.00
2018-12-07T13:34:12.851Z,25.93
2018-12-07T13:36:41.898Z,24.20
2018-12-07T13:39:10.913Z,24.97
2018-12-07T13:41:41.111Z,27.07
2018-12-07T13:44:10.044Z,31.53
2018-12-07T13:46:39.247Z,25.37
2018-12-07T13:49:08.415Z,24.70
2018-12-07T13:51:38.579Z,23.10
2018-12-07T13:54:07.500Z,24.40
2018-12-07T13:56:36.549Z,24.83
2018-12-07T13:59:05.833Z,25.40
2018-12-07T14:01:34.882Z,24.50
2018-12-07T14:04:03.967Z,24.53
2018-12-07T14:06:33.058Z,24.43
2018-12-07T14:09:02.139Z,23.60
2018-12-07T14:11:32.015Z,24.00
2018-12-07T14:14:01.168Z,25.73
2018-12-07T14:16:30.148Z,28.83
2018-12-07T14:18:59.314Z,25.33
2018-12-07T14:21:28.454Z,24.63
2018-12-07T14:23:57.952Z,24.43
2018-12-07T14:26:27.117Z,25.00
2018-12-07T14:28:56.192Z,24.43
2018-12-07T14:31:25.246Z,26.47
2018-12-07T14:33:54.350Z,26.50
2018-12-07T14:36:23.319Z,27.23
2018-12-07T14:38:52.918Z,28.60
2018-12-07T14:41:22.096Z,27.37
2018-12-07T14:43:51.482Z,27.93
2018-12-07T14:46:20.805Z,28.27
2018-12-07T14:48:49.820Z,28.30
2018-12-07T14:51:18.889Z,27.83
2018-12-07T14:53:48.123Z,27.47
2018-12-07T14:56:17.472Z,29.67
2018-12-07T14:58:46.612Z,27.50
2018-12-07T15:01:15.885Z,28.50
2018-12-07T15:03:45.592Z,30.47
2018-12-07T15:06:15.076Z,29.70
2018-12-07T15:08:44.767Z,28.50
2018-12-07T15:11:13.916Z,28.77
2018-12-07T15:13:43.490Z,29.20
2018-12-07T15:16:16.010Z,28.60
2018-12-07T15:18:47.407Z,29.50
2018-12-07T15:21:17.133Z,29.37
2018-12-07T15:23:46.170Z,31.43
2018-12-07T15:26:15.301Z,33.57
2018-12-07T15:28:44.595Z,31.50
2018-12-07T15:31:13.727Z,32.00
2018-12-07T15:33:42.908Z,33.13
2018-12-07T15:36:12.136Z,33.47
2018-12-07T15:38:41.188Z,33.37
2018-12-07T15:41:10.385Z,35.10
2018-12-07T15:43:39.558Z,38.47
2018-12-07T15:46:09.038Z,36.17
2018-12-07T15:49:44.651Z,37.60
2018-12-07T15:52:20.328Z,37.03
2018-12-07T16:04:36.698Z,41.50
2018-12-07T16:07:05.955Z,44.20
2018-12-07T16:09:35.247Z,38.40
2018-12-07T16:12:04.310Z,41.57
2018-12-07T16:14:34.377Z,54.70
2018-12-07T16:17:03.424Z,60.83
2018-12-07T16:19:32.538Z,61.83
2018-12-07T16:22:02.571Z,67.97
2018-12-07T16:24:31.745Z,71.50
2018-12-07T16:27:00.813Z,68.83
2018-12-07T16:29:29.783Z,76.33
2018-12-07T16:31:59.032Z,129.63
2018-12-07T16:34:27.769Z,79.57
2018-12-07T16:36:57.032Z,70.17
2018-12-07T16:39:26.126Z,65.43
2018-12-07T16:41:55.093Z,52.27
2018-12-07T16:44:23.814Z,65.63
2018-12-07T16:46:52.941Z,50.03
2018-12-07T16:49:21.954Z,55.63
2018-12-07T16:51:51.548Z,49.30
2018-12-07T16:54:20.469Z,49.80
2018-12-07T16:56:49.464Z,51.70
2018-12-07T16:59:18.562Z,54.40
2018-12-07T17:01:47.600Z,55.67
2018-12-07T17:04:16.583Z,53.20
2018-12-07T17:06:46.592Z,57.80
2018-12-07T17:09:15.818Z,55.43
2018-12-07T17:11:45.007Z,56.60
2018-12-07T17:14:14.135Z,60.53
2018-12-07T17:16:43.094Z,71.50
2018-12-07T17:19:12.250Z,78.80
2018-12-07T17:21:41.357Z,81.83
2018-12-07T17:24:10.438Z,80.53
2018-12-07T17:26:39.487Z,73.37
2018-12-07T17:29:08.722Z,73.43
2018-12-07T17:31:37.795Z,72.93
2018-12-07T17:34:06.952Z,84.20
2018-12-07T17:36:36.253Z,81.93
2018-12-07T17:39:06.665Z,75.97
2018-12-07T17:41:35.669Z,71.77
2018-12-07T17:44:04.895Z,69.07
2018-12-07T17:46:33.945Z,63.77
2018-12-07T17:49:02.939Z,64.37
2018-12-07T17:51:31.718Z,59.73
2018-12-07T17:54:00.775Z,61.80
2018-12-07T17:56:30.032Z,61.67
2018-12-07T17:58:58.598Z,57.63
2018-12-07T18:01:27.136Z,57.70
2018-12-07T18:03:56.032Z,56.80
2018-12-07T18:06:25.078Z,57.50
2018-12-07T18:08:55.122Z,55.63
2018-12-07T18:11:24.112Z,57.57
2018-12-07T18:13:53.095Z,58.00
2018-12-07T18:16:22.279Z,60.13
2018-12-07T18:18:51.357Z,60.53
2018-12-07T18:21:20.359Z,63.63
2018-12-07T18:23:49.550Z,64.20
2018-12-07T18:26:18.342Z,69.53
2018-12-07T18:28:47.551Z,74.67
2018-12-07T18:31:16.957Z,75.07
2018-12-07T18:33:46.028Z,68.93
2018-12-07T18:36:15.252Z,80.43
2018-12-07T18:38:55.617Z,87.73
2018-12-07T18:41:24.681Z,81.37
2018-12-07T18:43:53.845Z,79.57
2018-12-07T18:46:23.030Z,77.40
2018-12-07T18:48:52.144Z,77.70
2018-12-07T18:51:21.177Z,73.93
2018-12-07T18:53:50.376Z,72.37
2018-12-07T18:56:19.366Z,74.50
2018-12-07T18:58:48.450Z,77.87
2018-12-07T19:01:17.661Z,75.03
2018-12-07T19:03:46.952Z,80.73
2018-12-07T19:06:16.974Z,77.03
2018-12-07T19:08:46.086Z,79.67
2018-12-07T19:11:14.956Z,78.70
2018-12-07T19:13:44.119Z,83.90
2018-12-07T19:16:14.289Z,79.87
2018-12-07T19:18:42.899Z,87.93
2018-12-07T19:21:11.819Z,81.60
2018-12-07T19:23:40.971Z,86.23
2018-12-07T19:26:10.084Z,90.40
2018-12-07T19:28:39.430Z,88.87
2018-12-07T19:31:08.603Z,92.43
2018-12-07T19:33:37.462Z,86.53
2018-12-07T19:36:06.914Z,90.80
2018-12-07T19:38:36.026Z,90.73
2018-12-07T19:41:05.131Z,92.90
2018-12-07T19:43:34.208Z,89.50
2018-12-07T19:46:03.348Z,91.03
2018-12-07T19:48:32.661Z,82.67
2018-12-07T19:51:06.591Z,89.17
2018-12-07T19:53:35.807Z,84.20
2018-12-07T19:56:05.190Z,98.13
2018-12-07T19:58:34.555Z,93.73
2018-12-07T20:01:03.733Z,95.30
2018-12-07T20:03:32.908Z,86.70
2018-12-07T20:06:01.928Z,90.13
2018-12-07T20:08:31.282Z,94.43
2018-12-07T20:11:00.447Z,88.17
2018-12-07T20:13:29.825Z,86.53
2018-12-07T20:15:58.854Z,88.17
2018-12-07T20:18:28.153Z,89.57
2018-12-07T20:20:57.685Z,90.87
2018-12-07T20:23:26.574Z,85.20
2018-12-07T20:25:55.753Z,86.43
2018-12-07T20:28:25.000Z,81.63
2018-12-07T20:30:53.756Z,88.13
2018-12-07T20:33:22.456Z,89.40
2018-12-07T20:35:51.595Z,95.83
2018-12-07T20:38:20.583Z,90.43
2018-12-07T20:40:49.768Z,86.00
2018-12-07T20:43:18.844Z,92.43
2018-12-07T20:45:47.935Z,93.60
2018-12-07T20:48:17.168Z,95.67
2018-12-07T20:50:46.497Z,91.97
2018-12-07T20:53:15.705Z,87.80
2018-12-07T20:55:44.452Z,89.17
2018-12-07T20:58:13.624Z,93.73
2018-12-07T21:00:42.308Z,91.20
2018-12-07T21:03:11.436Z,92.17
2018-12-07T21:05:59.178Z,90.53
2018-12-07T21:08:52.426Z,91.67
2018-12-07T21:11:24.274Z,93.07
2018-12-07T21:14:35.079Z,85.10
2018-12-07T21:17:07.155Z,84.47
2018-12-07T21:19:37.649Z,86.43
2018-12-07T21:22:06.879Z,90.87
2018-12-07T21:24:35.969Z,84.70
2018-12-07T21:27:04.937Z,83.33
2018-12-07T21:29:33.645Z,84.57
2018-12-07T21:32:04.566Z,88.40
2018-12-07T21:34:39.005Z,81.20
2018-12-07T21:37:08.389Z,84.63
2018-12-07T21:39:46.172Z,90.10
2018-12-07T21:42:15.553Z,91.03
2018-12-07T21:44:44.925Z,85.70
2018-12-07T21:47:13.949Z,91.53
2018-12-07T21:49:52.442Z,90.47
2018-12-07T21:52:28.542Z,93.43
2018-12-07T21:54:57.651Z,97.00
2018-12-07T21:57:26.580Z,100.73
2018-12-07T21:59:55.474Z,96.53
2018-12-07T22:02:24.694Z,89.87
2018-12-07T22:04:53.777Z,97.13
2018-12-07T22:07:23.430Z,93.60
2018-12-07T22:09:52.582Z,98.20
2018-12-07T22:12:21.405Z,100.67
2018-12-07T22:14:50.439Z,100.77
2018-12-07T22:17:19.470Z,102.07
2018-12-07T22:19:48.396Z,104.70
2018-12-07T22:22:18.488Z,105.90
2018-12-07T22:24:47.972Z,101.27
2018-12-07T22:27:16.936Z,90.43
2018-12-07T22:29:46.186Z,87.80
2018-12-07T22:32:15.317Z,82.73
2018-12-07T22:34:44.525Z,82.17
2018-12-07T22:37:13.553Z,79.90
2018-12-07T22:39:42.551Z,76.53
2018-12-07T22:42:11.409Z,75.20
2018-12-07T22:44:40.405Z,75.73
2018-12-07T22:47:09.779Z,76.80
2018-12-07T22:49:38.833Z,78.30
2018-12-07T22:52:07.766Z,76.63
2018-12-07T22:54:36.625Z,75.93
2018-12-07T22:57:05.560Z,75.23
2018-12-07T22:59:34.445Z,73.70
2018-12-07T23:02:03.039Z,78.50
2018-12-07T23:04:31.983Z,78.00
2018-12-07T23:07:00.871Z,89.62
2018-12-07T23:09:29.782Z,81.93
2018-12-07T23:11:58.761Z,79.13
2018-12-07T23:14:27.776Z,80.50
2018-12-07T23:16:56.661Z,83.33
2018-12-07T23:19:25.611Z,81.43
2018-12-07T23:21:54.203Z,83.87
2018-12-07T23:24:23.212Z,80.90
2018-12-07T23:26:52.214Z,84.77
2018-12-07T23:29:23.150Z,78.80
2018-12-07T23:31:52.062Z,83.10
2018-12-07T23:34:21.014Z,84.10
2018-12-07T23:36:49.998Z,87.03
2018-12-07T23:39:18.843Z,81.73
2018-12-07T23:41:47.871Z,80.90
2018-12-07T23:44:16.804Z,88.30
2018-12-07T23:46:45.869Z,91.93
2018-12-07T23:49:14.905Z,88.60
2018-12-07T23:51:43.877Z,89.93
2018-12-07T23:54:12.857Z,89.40
2018-12-07T23:56:41.874Z,94.10
2018-12-07T23:59:10.803Z,93.73
